Latest Weather Observations for Evans Head

IDN60801

Issued at 4:33 pm EST Tuesday 21 April 2015 (issued every 30 minutes, with the page automatically refreshed every 10 minutes)

About weather observations | Map of weather stations | Latest weather observations for NSW | Other Formats
Station Details ID: 058212 Name: EVANS HEAD RAAF BOMBING RANGE AWS Lat: -29.18 Lon: 153.40 Height: 62.5 m
Data from the previous 72 hours. | See also: Recent months at Evans Head
Date/Time
EST
Temp
°C
App
Temp
°C
Dew
Point
Rel
Hum
%
Delta-T
°C
Wind Press
QNH
hPa
Press
MSL
hPa
Rain
since 9 am
mm
Dir
 
Spd
km/h
Gust
km/h
Spd
kts
Gust
kts
21/04:30pm 17.9 13.4 7.0 49 5.5 NW 20 32 11 17 1013.4 1013.1 0.0
21/04:00pm 20.0 16.4 8.4 47 6.1 NW 17 28 9 15 1013.3 1013.0 0.0
21/03:30pm 20.8 16.8 8.4 45 6.5 NW 19 35 10 19 1013.0 1012.8 0.0
21/03:00pm 21.7 16.9 7.5 40 7.4 NW 22 35 12 19 1012.9 1012.7 0.0
21/02:30pm 22.5 18.1 10.3 46 6.7 NW 24 41 13 22 1012.9 1012.7 0.0
21/02:00pm 21.2 16.8 8.8 45 6.6 NNW 22 35 12 19 1012.8 1012.6 0.0
21/01:30pm 22.3 18.3 8.4 41 7.4 NNW 19 37 10 20 1013.0 1012.8 0.0
21/01:00pm 20.8 16.9 9.4 48 6.1 NNW 20 39 11 21 1013.6 1013.3 0.0
21/12:30pm 20.1 17.1 10.5 54 5.2 NNW 17 30 9 16 1014.2 1013.9 0.0
21/12:00pm 19.4 15.7 10.1 55 5.0 NNW 20 30 11 16 1014.6 1014.3 0.0
21/11:30am 19.1 15.5 9.9 55 4.9 NNW 19 28 10 15 1015.0 1014.7 0.0
21/11:00am 19.5 17.3 10.8 57 4.7 NW 13 20 7 11 1015.3 1015.1 0.0
21/10:30am 20.1 15.9 9.9 52 5.5 NNW 22 32 12 17 1015.4 1015.2 0.0
21/10:00am 19.8 16.8 11.8 60 4.4 NW 19 30 10 16 1015.6 1015.4 0.0
21/09:30am 19.5 17.7 13.2 67 3.6 NW 15 22 8 12 1015.8 1015.6 0.0
21/09:00am 17.5 16.4 13.0 75 2.5 WNW 11 24 6 13 1016.1 1015.9 2.6
21/08:30am 16.5 15.2 13.8 84 1.5 NW 13 20 7 11 1016.3 1016.1 2.6
21/08:00am 15.2 13.9 14.7 97 0.3 NNW 15 22 8 12 1016.2 1016.0 2.6
21/07:30am 14.6 13.5 14.3 98 0.2 NNW 13 19 7 10 1015.9 1015.7 2.6
21/07:00am 13.1 11.5 12.8 98 0.2 NW 13 20 7 11 1015.8 1015.6 2.6
21/06:30am 12.7 11.7 12.4 98 0.2 NNW 9 13 5 7 1015.7 1015.5 2.6
21/06:00am 12.9 12.4 12.6 98 0.2 NW 7 13 4 7 1015.6 1015.4 2.6
21/05:30am 13.4 13.0 13.1 98 0.2 WNW 7 13 4 7 1015.3 1015.1 2.6
21/05:00am 13.4 13.0 13.1 98 0.2 WNW 7 13 4 7 1015.3 1015.1 2.6
21/04:30am 13.5 12.8 13.2 98 0.2 NW 9 15 5 8 1015.2 1015.0 2.6
21/04:00am 13.8 13.2 13.5 98 0.2 NW 9 15 5 8 1015.1 1014.9 2.4
21/03:30am 14.3 13.1 14.1 99 0.1 NW 13 20 7 11 1015.1 1014.9 2.4
21/03:00am 14.6 13.5 14.3 98 0.2 WNW 13 22 7 12 1014.8 1014.5 2.4
21/02:30am 14.9 13.9 14.7 99 0.1 W 13 20 7 11 1014.8 1014.5 2.4
21/02:00am 15.2 14.0 15.0 99 0.1 WNW 15 22 8 12 1014.5 1014.2 2.4
21/01:30am 16.0 15.5 15.8 99 0.1 WNW 13 20 7 11 1014.7 1014.4 2.4
21/01:00am 16.5 16.1 16.3 99 0.1 NW 13 22 7 12 1015.2 1015.0 2.4
21/12:30am 16.8 16.9 16.6 99 0.1 NW 11 17 6 9 1015.7 1015.5 2.4
21/12:00am 17.3 18.0 17.1 99 0.1 W 9 19 5 10 1015.7 1015.5 2.4
 
Date/Time
EST
Temp
°C
App
Temp
°C
Dew
Point
Rel
Hum
%
Delta-T
°C
Wind Press
QNH
hPa
Press
MSL
hPa
Rain
since 9 am
mm
Dir
 
Spd
km/h
Gust
km/h
Spd
kts
Gust
kts
20/11:30pm 17.5 18.7 17.3 99 0.1 WNW 7 11 4 6 1016.0 1015.8 2.4
20/11:00pm 17.9 18.9 17.7 99 0.1 WNW 9 13 5 7 1016.4 1016.2 2.4
20/10:30pm 18.0 19.0 17.8 99 0.1 NW 9 15 5 8 1016.7 1016.5 2.4
20/10:00pm 17.8 20.4 17.6 99 0.1 CALM 0 0 0 0 1016.7 1016.5 2.4
20/09:30pm 18.0 20.7 17.8 99 0.1 CALM 0 6 0 3 1016.9 1016.7 2.2
20/09:00pm 18.0 19.6 17.8 99 0.1 WSW 6 11 3 6 1017.5 1017.3 2.0
20/08:30pm 18.0 19.6 17.8 99 0.1 WNW 6 9 3 5 1017.1 1016.9 1.8
20/08:00pm 18.0 19.4 17.8 99 0.1 NNW 7 11 4 6 1017.1 1016.9 1.6
20/07:30pm 18.2 19.7 18.0 99 0.1 WNW 7 11 4 6 1017.5 1017.3 1.4
20/07:00pm 18.2 19.9 18.0 99 0.1 WSW 6 7 3 4 1017.3 1017.1 1.2
20/06:30pm 18.1 20.9 17.9 99 0.1 CALM 0 0 0 0 1016.7 1016.5 1.2
20/06:00pm 18.1 19.5 17.9 99 0.1 WNW 7 9 4 5 1016.7 1016.5 1.2
20/05:30pm 18.4 20.0 18.2 99 0.1 WNW 7 11 4 6 1016.5 1016.3 1.2
20/05:00pm 18.8 21.5 18.6 99 0.1 WNW 2 9 1 5 1016.7 1016.5 1.2
20/04:30pm 18.8 21.9 18.6 99 0.1 CALM 0 6 0 3 1016.6 1016.4 1.2
20/04:00pm 18.8 20.5 18.5 98 0.2 W 7 9 4 5 1016.3 1016.1 1.2
20/03:30pm 19.2 21.6 18.9 98 0.2 WNW 4 7 2 4 1016.2 1016.0 1.0
20/03:00pm 19.4 22.7 19.1 98 0.2 CALM 0 6 0 3 1016.4 1016.2 0.6
20/02:30pm 19.1 21.0 18.6 97 0.3 SW 6 9 3 5 1016.4 1016.2 0.6
20/02:00pm 19.2 21.1 18.9 98 0.2 WSW 7 13 4 7 1016.6 1016.4 0.6
20/01:30pm 19.3 21.4 19.0 98 0.2 W 6 11 3 6 1016.3 1016.1 0.6
20/01:00pm 19.2 20.7 18.9 98 0.2 SSW 9 17 5 9 1016.9 1016.7 0.6
20/12:30pm 19.2 22.0 18.9 98 0.2 WSW 2 11 1 6 1017.1 1016.9 0.6
20/12:00pm 18.6 19.1 18.3 98 0.2 SSW 13 19 7 10 1017.6 1017.4 0.6
20/11:30am 18.3 19.1 18.1 99 0.1 SW 11 19 6 10 1017.7 1017.5 0.6
20/11:00am 17.8 17.6 17.6 99 0.1 SW 15 24 8 13 1018.3 1018.1 0.6
20/10:30am 17.8 17.6 17.6 99 0.1 SSW 15 20 8 11 1018.1 1017.9 0.6
20/10:00am 17.6 16.5 17.4 99 0.1 SW 19 26 10 14 1018.8 1018.6 0.2
20/09:30am 17.5 16.8 17.3 99 0.1 SW 17 22 9 12 1018.5 1018.3 0.2
20/09:00am 17.3 16.5 17.1 99 0.1 SW 17 26 9 14 1018.9 1018.7 7.0
20/08:30am 18.5 17.3 18.3 99 0.1 SSW 22 33 12 18 1019.0 1018.8 7.0
20/08:00am 18.3 15.8 18.1 99 0.1 SSE 28 37 15 20 1018.2 1018.0 7.0
20/07:30am 17.7 17.1 17.5 99 0.1 SSW 17 24 9 13 1019.1 1018.9 6.4
20/07:00am 17.4 17.0 17.2 99 0.1 SSW 15 26 8 14 1019.2 1019.0 5.4
20/06:30am 16.7 16.0 16.5 99 0.1 SSW 15 24 8 13 1018.7 1018.5 5.0
20/06:00am 16.7 16.0 16.5 99 0.1 SW 15 22 8 12 1019.1 1018.9 4.0
20/05:30am 16.8 15.2 16.5 98 0.2 SSW 20 32 11 17 1018.8 1018.6 3.4
20/05:00am 16.7 15.1 16.4 98 0.2 SW 20 28 11 15 1018.8 1018.6 3.0
20/04:30am 17.1 16.2 16.9 99 0.1 SSW 17 24 9 13 1018.7 1018.5 2.4
20/04:00am 16.8 16.1 16.5 98 0.2 SSW 15 24 8 13 1018.4 1018.2 2.2
20/03:30am 17.0 15.5 16.7 98 0.2 SSW 20 30 11 16 1018.0 1017.8 1.8
20/03:00am 17.4 16.0 17.1 98 0.2 SW 20 32 11 17 1018.0 1017.8 1.4
20/02:30am 17.9 16.9 17.6 98 0.2 SW 19 28 10 15 1018.4 1018.2 0.8
20/02:00am 18.2 17.4 17.9 98 0.2 SSW 19 26 10 14 1018.2 1018.0 0.6
20/01:30am 18.3 17.5 18.0 98 0.2 SSW 19 28 10 15 1018.3 1018.1 0.4
20/01:00am 18.6 18.0 18.4 99 0.1 SSW 19 32 10 17 1018.3 1018.1 0.4
20/12:30am 18.7 18.5 18.4 98 0.2 SSW 17 22 9 12 1018.4 1018.2 0.2
20/12:00am 19.0 19.3 18.7 98 0.2 SW 15 20 8 11 1019.2 1019.0 0.2
 
Date/Time
EST
Temp
°C
App
Temp
°C
Dew
Point
Rel
Hum
%
Delta-T
°C
Wind Press
QNH
hPa
Press
MSL
hPa
Rain
since 9 am
mm
Dir
 
Spd
km/h
Gust
km/h
Spd
kts
Gust
kts
19/11:30pm 18.9 18.7 18.6 98 0.2 SW 17 24 9 13 1018.9 1018.7 0.2
19/11:00pm 19.1 19.8 18.9 99 0.1 SW 13 20 7 11 1019.3 1019.1 0.2
19/10:30pm 19.6 20.2 19.4 99 0.1 SSW 15 19 8 10 1019.2 1019.0 0.2
19/10:00pm 19.7 20.3 19.5 99 0.1 SSW 15 20 8 11 1019.5 1019.3 0.2
19/09:30pm 19.9 21.4 19.7 99 0.1 SSW 11 15 6 8 1019.5 1019.3 0.2
19/09:00pm 19.9 21.7 19.6 98 0.2 SSW 9 15 5 8 1019.5 1019.3 0.2
19/08:30pm 20.2 21.4 19.9 98 0.2 SW 13 15 7 8 1019.3 1019.1 0.2
19/08:00pm 20.2 21.4 19.9 98 0.2 SSW 13 17 7 9 1019.1 1018.9 0.2
19/07:30pm 20.3 21.5 20.0 98 0.2 SW 13 17 7 9 1019.0 1018.8 0.2
19/07:00pm 20.6 22.7 20.1 97 0.3 SW 9 13 5 7 1018.4 1018.2 0.2
19/06:30pm 20.5 22.5 20.0 97 0.3 WNW 9 9 5 5 1018.0 1017.8 0.2
19/06:00pm 20.8 23.3 20.3 97 0.3 WNW 7 7 4 4 1017.9 1017.7 0.2
19/05:30pm 21.4 23.6 19.7 90 1.1 WSW 7 9 4 5 1018.0 1017.8 0.0
19/05:00pm 21.5 23.9 19.6 89 1.2 SSW 6 9 3 5 1017.5 1017.3 0.0
19/04:30pm 21.8 24.2 20.1 90 1.1 SSW 7 7 4 4 1017.0 1016.8 0.0
19/04:00pm 22.1 23.9 19.6 86 1.6 WNW 9 11 5 6 1017.0 1016.8 0.0
19/03:30pm 22.5 24.2 18.5 78 2.5 WSW 7 13 4 7 1017.0 1016.8 0.0
19/03:00pm 23.4 24.2 18.1 72 3.3 WSW 11 19 6 10 1017.1 1016.9 0.0
19/02:30pm 24.2 24.7 17.4 65 4.2 WNW 11 17 6 9 1016.5 1016.3 0.0
19/02:00pm 25.4 25.2 17.6 62 4.9 WNW 15 24 8 13 1016.6 1016.4 0.0
19/01:30pm 27.0 26.5 17.8 57 5.8 NW 17 26 9 14 1016.6 1016.4 0.0
19/01:00pm 28.4 26.6 17.0 50 7.2 NW 22 37 12 20 1016.7 1016.5 0.0
19/12:30pm 28.5 27.6 18.3 54 6.5 NNW 20 35 11 19 1017.0 1016.8 0.0
19/12:00pm 28.8 28.9 19.1 55 6.3 NW 17 26 9 14 1017.5 1017.3 0.0
19/11:30am 28.4 28.7 19.6 59 5.7 NW 17 26 9 14 1018.1 1017.9 0.0
19/11:00am 26.5 27.2 19.6 66 4.5 NW 15 24 8 13 1018.7 1018.5 0.0
19/10:30am 26.8 27.9 19.7 65 4.6 NW 13 28 7 15 1018.9 1018.7 0.0
19/10:00am 26.2 27.7 19.8 68 4.2 NW 11 24 6 13 1018.9 1018.7 0.0
19/09:30am 23.9 24.8 18.5 72 3.4 NW 11 19 6 10 1019.0 1018.8 0.0
19/09:00am 24.0 26.5 19.9 78 2.6 NW 6 13 3 7 1019.0 1018.8 0.0
19/08:30am 22.4 24.8 20.1 87 1.5 NNW 7 15 4 8 1018.8 1018.6 0.0
19/08:00am 21.7 24.3 21.2 97 0.3 NNW 9 13 5 7 1018.6 1018.4 0.0
19/07:30am 20.1 22.4 19.8 98 0.2 NNW 7 11 4 6 1018.4 1018.2 0.0
19/07:00am 18.9 19.9 18.7 99 0.1 N 11 15 6 8 1018.0 1017.8 0.0
19/06:30am 18.2 19.3 17.9 98 0.2 WNW 9 13 5 7 1018.0 1017.8 0.0
19/06:00am 18.0 19.0 17.7 98 0.2 N 9 13 5 7 1017.4 1017.2 0.0
19/05:30am 17.9 19.2 17.6 98 0.2 NNW 7 9 4 5 1017.3 1017.1 0.0
19/05:00am 18.1 19.1 17.8 98 0.2 N 9 13 5 7 1017.1 1016.9 0.0
19/04:30am 18.4 19.5 18.1 98 0.2 NNW 9 13 5 7 1017.4 1017.2 0.0
19/04:00am 18.5 19.3 18.2 98 0.2 NNW 11 15 6 8 1017.2 1017.0 0.0
19/03:30am 18.9 19.5 18.6 98 0.2 NNW 13 17 7 9 1017.2 1017.0 0.0
19/03:00am 19.4 19.0 18.9 97 0.3 N 19 26 10 14 1017.3 1017.1 0.0
19/02:30am 19.5 19.5 19.0 97 0.3 N 17 24 9 13 1017.5 1017.3 0.0
19/02:00am 20.0 20.3 19.5 97 0.3 N 17 24 9 13 1018.1 1017.9 0.0
19/01:30am 19.9 20.1 19.4 97 0.3 N 17 26 9 14 1018.5 1018.3 0.0
19/01:00am 20.5 20.6 20.0 97 0.3 N 19 30 10 16 1018.7 1018.5 0.0
19/12:30am 20.4 20.3 19.9 97 0.3 N 20 33 11 18 1019.1 1018.9 0.0
19/12:00am 19.5 19.5 19.0 97 0.3 NNW 17 26 9 14 1019.3 1019.1 0.0
 
Date/Time
EST
Temp
°C
App
Temp
°C
Dew
Point
Rel
Hum
%
Delta-T
°C
Wind Press
QNH
hPa
Press
MSL
hPa
Rain
since 9 am
mm
Dir
 
Spd
km/h
Gust
km/h
Spd
kts
Gust
kts
18/11:30pm 19.3 20.0 18.8 97 0.3 NNW 13 17 7 9 1019.6 1019.4 0.0
18/11:00pm 19.9 20.9 19.4 97 0.3 NNW 13 20 7 11 1019.8 1019.6 0.0
18/10:30pm 20.4 21.5 19.7 96 0.4 N 13 20 7 11 1019.7 1019.5 0.0
18/10:00pm 20.7 21.1 19.9 95 0.5 N 17 24 9 13 1019.8 1019.6 0.0
18/09:30pm 21.0 21.4 19.8 93 0.8 N 17 26 9 14 1019.9 1019.7 0.0
18/09:00pm 21.0 21.3 19.6 92 0.9 N 17 28 9 15 1019.8 1019.6 0.0
18/08:30pm 21.3 21.4 19.2 88 1.3 N 17 32 9 17 1019.7 1019.5 0.0
18/08:00pm 21.8 21.4 19.4 86 1.5 N 20 32 11 17 1019.4 1019.2 0.0
18/07:30pm 22.0 21.8 19.7 87 1.5 N 20 32 11 17 1019.3 1019.1 0.0
18/07:00pm 21.9 21.6 19.6 87 1.5 N 20 30 11 16 1019.2 1019.0 0.0
18/06:30pm 21.8 21.4 19.0 84 1.8 N 19 28 10 15 1019.1 1018.9 0.0
18/06:00pm 21.8 21.7 18.8 83 1.9 N 17 26 9 14 1019.1 1018.9 0.0
18/05:30pm 22.5 21.7 18.5 78 2.5 N 20 32 11 17 1019.0 1018.8 0.0
18/05:00pm 22.7 21.8 18.3 76 2.8 N 20 33 11 18 1019.1 1018.9 0.0

Other Formats:

Comma delimited format used in spreadsheet applications
http://www.bom.gov.au/fwo/IDN60801/IDN60801.94598.axf

JavaScript Object Notation format (JSON) in row-major order
http://www.bom.gov.au/fwo/IDN60801/IDN60801.94598.json